createdAt,value
2019-03-24T00:03:55.783Z,99220.00
2019-03-24T00:09:23.622Z,99210.00
2019-03-24T00:14:31.826Z,99206.00
2019-03-24T00:19:40.009Z,99199.00
2019-03-24T00:24:47.003Z,99191.00
2019-03-24T00:29:56.775Z,99184.00
2019-03-24T00:35:06.300Z,99180.00
2019-03-24T00:40:15.174Z,99171.00
2019-03-24T00:45:23.485Z,99168.00
2019-03-24T00:50:30.276Z,99166.00
2019-03-24T00:55:37.141Z,99174.00
2019-03-24T01:00:49.949Z,99161.00
2019-03-24T01:05:56.521Z,99154.00
2019-03-24T01:11:03.002Z,99159.00
2019-03-24T01:16:09.144Z,99152.00
2019-03-24T01:21:16.037Z,99151.00
2019-03-24T01:26:22.121Z,99147.00
2019-03-24T01:31:29.007Z,99147.00
2019-03-24T01:36:34.887Z,99143.00
2019-03-24T01:41:40.846Z,99148.00
2019-03-24T01:46:47.432Z,99147.00
2019-03-24T01:51:54.027Z,99144.00
2019-03-24T01:57:01.645Z,99136.00
2019-03-24T02:02:07.702Z,99129.00
2019-03-24T02:07:15.251Z,99134.00
2019-03-24T02:12:23.538Z,99129.00
2019-03-24T02:17:30.221Z,99129.00
2019-03-24T02:22:36.297Z,99118.00
2019-03-24T02:27:42.881Z,99122.00
2019-03-24T02:32:50.287Z,99123.00
2019-03-24T02:37:56.874Z,99115.00
2019-03-24T02:43:02.807Z,99104.00
2019-03-24T02:48:09.654Z,99108.00
2019-03-24T02:53:16.534Z,99102.00
2019-03-24T02:58:24.649Z,99100.00
2019-03-24T03:03:30.628Z,99092.00
2019-03-24T03:08:36.696Z,99094.00
2019-03-24T03:13:43.898Z,99086.00
2019-03-24T03:18:52.533Z,99094.00
2019-03-24T03:23:59.357Z,99085.00
2019-03-24T03:29:06.729Z,99081.00
2019-03-24T03:34:13.629Z,99075.00
2019-03-24T03:39:21.849Z,99068.00
2019-03-24T03:44:27.825Z,99078.00
2019-03-24T03:49:35.137Z,99077.00
2019-03-24T03:54:42.018Z,99075.00
2019-03-24T03:59:50.161Z,99073.00
2019-03-24T04:04:56.115Z,99071.00
2019-03-24T04:10:03.024Z,99069.00
2019-03-24T04:15:11.371Z,99057.00
2019-03-24T04:20:19.246Z,99061.00
2019-03-24T04:25:26.047Z,99059.00
2019-03-24T04:30:33.743Z,99040.00
2019-03-24T04:35:41.675Z,99031.00
2019-03-24T04:40:47.751Z,99022.00
2019-03-24T04:45:54.833Z,99031.00
2019-03-24T04:51:01.423Z,99026.00
2019-03-24T04:56:08.525Z,99028.00
2019-03-24T05:01:15.526Z,99023.00
2019-03-24T05:06:22.740Z,99022.00
2019-03-24T05:11:30.072Z,99024.00
2019-03-24T05:16:39.315Z,99017.00
2019-03-24T05:21:47.290Z,99025.00
2019-03-24T05:26:53.785Z,99017.00
2019-03-24T05:31:59.846Z,99012.00
2019-03-24T05:37:06.537Z,99012.00
2019-03-24T05:42:12.449Z,99002.00
2019-03-24T05:47:18.903Z,99006.00
2019-03-24T05:52:27.618Z,98997.00
2019-03-24T05:57:34.307Z,99001.00
2019-03-24T06:02:41.151Z,98991.00
2019-03-24T06:07:49.019Z,98988.00
2019-03-24T06:12:55.758Z,98993.00
2019-03-24T06:18:02.193Z,98994.00
2019-03-24T06:23:08.703Z,98997.00
2019-03-24T06:28:16.899Z,98987.00
2019-03-24T06:33:22.868Z,98987.00
2019-03-24T06:43:52.344Z,98997.00
2019-03-24T06:48:59.344Z,98991.00
2019-03-24T06:54:05.932Z,98998.00
2019-03-24T06:59:12.566Z,99007.00
2019-03-24T07:04:19.709Z,98990.00
2019-03-24T07:09:38.666Z,98988.00
2019-03-24T07:14:44.660Z,98993.00
2019-03-24T07:19:51.363Z,98976.00
2019-03-24T07:24:58.137Z,98987.00
2019-03-24T07:30:09.431Z,98980.00
2019-03-24T07:35:18.423Z,98984.00
2019-03-24T07:40:25.474Z,98978.00
2019-03-24T07:45:34.119Z,98969.00
2019-03-24T07:50:42.868Z,98962.00
2019-03-24T07:55:48.918Z,98959.00
2019-03-24T08:01:08.229Z,98947.00
2019-03-24T08:06:14.374Z,98946.00
2019-03-24T08:11:21.474Z,98943.00
2019-03-24T08:16:28.027Z,98939.00
2019-03-24T08:21:36.672Z,98930.00
2019-03-24T08:26:43.487Z,98928.00
2019-03-24T08:31:50.081Z,98919.00
2019-03-24T08:36:56.976Z,98920.00
2019-03-24T08:42:03.523Z,98911.00
2019-03-24T08:47:09.629Z,98918.00
2019-03-24T08:52:16.514Z,98911.00
2019-03-24T08:57:23.615Z,98912.00
2019-03-24T09:02:31.329Z,98904.00
2019-03-24T09:07:39.343Z,98910.00
2019-03-24T09:12:57.696Z,98901.00
2019-03-24T09:18:04.297Z,98899.00
2019-03-24T09:23:10.993Z,98895.00
2019-03-24T09:28:17.553Z,98899.00
2019-03-24T09:33:24.462Z,98887.00
2019-03-24T09:38:32.989Z,98891.00
2019-03-24T09:43:39.901Z,98882.00
2019-03-24T09:49:07.263Z,98870.00
2019-03-24T09:54:15.686Z,98877.00
2019-03-24T10:00:21.465Z,98870.00
2019-03-24T10:05:28.994Z,98870.00
2019-03-24T10:10:35.554Z,98861.00
2019-03-24T10:15:42.563Z,98863.00
2019-03-24T10:20:48.629Z,98856.00
2019-03-24T10:25:55.625Z,98853.00
2019-03-24T10:31:02.572Z,98845.00
2019-03-24T10:47:44.670Z,98835.00
2019-03-24T10:52:51.990Z,98826.00
2019-03-24T10:57:59.073Z,98821.00
2019-03-24T11:03:05.449Z,98828.00
2019-03-24T11:08:11.479Z,98811.00
2019-03-24T11:13:19.494Z,98810.00
2019-03-24T11:18:25.299Z,98806.00
2019-03-24T11:23:31.328Z,98792.00
2019-03-24T11:28:38.312Z,98794.00
2019-03-24T11:33:46.364Z,98779.00
2019-03-24T11:38:53.742Z,98767.00
2019-03-24T11:44:00.550Z,98762.00
2019-03-24T11:49:19.464Z,98761.00
2019-03-24T11:54:26.880Z,98756.00
2019-03-24T11:59:34.042Z,98747.00
2019-03-24T12:04:40.777Z,98735.00
2019-03-24T12:09:47.841Z,98734.00
2019-03-24T12:14:56.193Z,98731.00
2019-03-24T12:20:23.176Z,98725.00
2019-03-24T12:25:31.582Z,98716.00
2019-03-24T12:30:38.293Z,98722.00
2019-03-24T12:35:45.171Z,98716.00
2019-03-24T12:40:53.305Z,98712.00
2019-03-24T12:46:01.012Z,98710.00
2019-03-24T12:51:06.971Z,98710.00
2019-03-24T12:56:13.963Z,98700.00
2019-03-24T13:01:19.854Z,98694.00
2019-03-24T13:06:28.231Z,98677.00
2019-03-24T13:11:35.646Z,98673.00
2019-03-24T13:16:43.358Z,98678.00
2019-03-24T13:21:51.647Z,98665.00
2019-03-24T13:26:57.585Z,98670.00
2019-03-24T13:32:05.302Z,98664.00
2019-03-24T13:37:11.822Z,98659.00
2019-03-24T13:42:19.531Z,98660.00
2019-03-24T13:47:29.036Z,98653.00
2019-03-24T13:52:35.260Z,98652.00
2019-03-24T13:57:43.573Z,98658.00
2019-03-24T14:02:52.639Z,98654.00
2019-03-24T14:07:58.716Z,98641.00
2019-03-24T14:13:08.555Z,98635.00
2019-03-24T14:18:16.924Z,98635.00
2019-03-24T14:23:25.004Z,98623.00
2019-03-24T14:28:33.621Z,98623.00
2019-03-24T14:33:41.444Z,98614.00
2019-03-24T14:38:48.890Z,98618.00
2019-03-24T14:43:56.413Z,98608.00
2019-03-24T14:49:04.988Z,98605.00
2019-03-24T14:54:12.561Z,98598.00
2019-03-24T14:59:21.454Z,98603.00
2019-03-24T15:04:29.341Z,98599.00
2019-03-24T15:09:37.757Z,98610.00
2019-03-24T15:14:47.133Z,98603.00
2019-03-24T15:19:55.191Z,98615.00
2019-03-24T15:25:02.966Z,98606.00
2019-03-24T15:30:11.628Z,98611.00
2019-03-24T15:35:19.925Z,98614.00
2019-03-24T15:40:28.343Z,98605.00
2019-03-24T15:45:35.463Z,98606.00
2019-03-24T15:50:41.931Z,98613.00
2019-03-24T15:55:49.782Z,98593.00
2019-03-24T16:00:57.015Z,98596.00
2019-03-24T16:06:06.230Z,98589.00
2019-03-24T16:11:16.118Z,98590.00
2019-03-24T16:16:24.932Z,98589.00
2019-03-24T16:21:32.006Z,98579.00
2019-03-24T16:26:39.899Z,98577.00
2019-03-24T16:32:08.035Z,98574.00
2019-03-24T16:37:16.318Z,98568.00
2019-03-24T16:42:24.593Z,98567.00
2019-03-24T16:47:32.104Z,98559.00
2019-03-24T16:52:42.443Z,98555.00
2019-03-24T16:57:52.183Z,98549.00
2019-03-24T17:03:01.841Z,98554.00
2019-03-24T17:08:08.833Z,98550.00
2019-03-24T17:13:17.396Z,98560.00
2019-03-24T17:18:30.094Z,98552.00
2019-03-24T17:23:37.694Z,98553.00
2019-03-24T17:28:46.917Z,98551.00
2019-03-24T17:33:53.628Z,98554.00
2019-03-24T17:39:00.856Z,98554.00
2019-03-24T17:44:10.099Z,98547.00
2019-03-24T17:49:18.428Z,98541.00
2019-03-24T17:54:28.762Z,98554.00
2019-03-24T17:59:38.508Z,98540.00
2019-03-24T18:04:46.109Z,98536.00
2019-03-24T18:09:54.386Z,98551.00
2019-03-24T18:15:02.306Z,98534.00
2019-03-24T18:20:12.464Z,98522.00
2019-03-24T18:25:19.476Z,98526.00
2019-03-24T18:30:28.335Z,98534.00
2019-03-24T18:35:35.551Z,98534.00
2019-03-24T18:40:43.345Z,98538.00
2019-03-24T18:45:51.677Z,98535.00
2019-03-24T18:50:59.298Z,98541.00
2019-03-24T18:56:06.950Z,98518.00
2019-03-24T19:01:15.718Z,98515.00
2019-03-24T19:06:23.543Z,98502.00
2019-03-24T19:11:31.300Z,98507.00
2019-03-24T19:16:38.420Z,98504.00
2019-03-24T19:21:45.083Z,98497.00
2019-03-24T19:26:53.924Z,98498.00
2019-03-24T19:32:04.650Z,98503.00
2019-03-24T19:37:13.117Z,98501.00
2019-03-24T19:42:20.875Z,98498.00
2019-03-24T19:47:29.196Z,98493.00
2019-03-24T19:52:44.611Z,98486.00
2019-03-24T19:57:48.533Z,98491.00
2019-03-24T20:02:55.768Z,98485.00
2019-03-24T20:08:02.827Z,98474.00
2019-03-24T20:13:10.082Z,98475.00
2019-03-24T20:18:19.197Z,98476.00
2019-03-24T20:23:27.086Z,98458.00
2019-03-24T20:28:36.344Z,98452.00
2019-03-24T20:33:43.356Z,98447.00
2019-03-24T20:38:53.614Z,98444.00
2019-03-24T20:44:01.766Z,98444.00
2019-03-24T20:49:10.040Z,98435.00
2019-03-24T20:54:16.036Z,98420.00
2019-03-24T20:59:25.030Z,98422.00
2019-03-24T21:04:34.570Z,98428.00
2019-03-24T21:09:42.966Z,98423.00
2019-03-24T21:14:50.523Z,98420.00
2019-03-24T21:19:58.613Z,98415.00
2019-03-24T21:25:06.775Z,98407.00
2019-03-24T21:30:16.118Z,98413.00
2019-03-24T21:35:34.556Z,98413.00
2019-03-24T21:40:41.626Z,98412.00
2019-03-24T21:45:52.265Z,98405.00
2019-03-24T21:50:58.695Z,98395.00
2019-03-24T21:56:04.977Z,98397.00
2019-03-24T22:01:14.986Z,98387.00
2019-03-24T22:06:23.891Z,98390.00
2019-03-24T22:11:31.358Z,98403.00
2019-03-24T22:16:39.311Z,98391.00
2019-03-24T22:21:45.174Z,98383.00
2019-03-24T22:26:51.857Z,98371.00
2019-03-24T22:31:58.240Z,98363.00
2019-03-24T22:37:15.163Z,98357.00
2019-03-24T22:42:12.923Z,98347.00
2019-03-24T22:47:18.623Z,98345.00
2019-03-24T22:52:26.500Z,98334.00
2019-03-24T22:57:32.741Z,98331.00
2019-03-24T23:02:40.121Z,98335.00
2019-03-24T23:07:48.246Z,98322.00
2019-03-24T23:12:55.639Z,98317.00
2019-03-24T23:18:02.858Z,98313.00
2019-03-24T23:23:09.164Z,98314.00
2019-03-24T23:28:15.915Z,98305.00
2019-03-24T23:33:23.906Z,98298.00
2019-03-24T23:38:30.535Z,98295.00
2019-03-24T23:43:39.061Z,98287.00
2019-03-24T23:48:44.931Z,98291.00
2019-03-24T23:53:51.717Z,98289.00
2019-03-24T23:58:57.475Z,98279.00
